createdAt,value
2017-08-23T00:02:28.874Z,13.90
2017-08-23T00:04:59.835Z,13.90
2017-08-23T00:07:31.737Z,13.90
2017-08-23T00:10:02.631Z,13.80
2017-08-23T00:12:32.986Z,13.80
2017-08-23T00:15:04.178Z,13.70
2017-08-23T00:17:34.662Z,13.70
2017-08-23T00:20:05.055Z,13.70
2017-08-23T00:22:36.947Z,13.70
2017-08-23T00:25:07.466Z,13.60
2017-08-23T00:27:38.111Z,13.60
2017-08-23T00:30:08.886Z,13.60
2017-08-23T00:32:39.306Z,13.50
2017-08-23T00:35:10.019Z,13.50
2017-08-23T00:37:40.898Z,13.50
2017-08-23T00:40:11.752Z,13.50
2017-08-23T00:42:42.425Z,13.40
2017-08-23T00:45:13.888Z,13.40
2017-08-23T00:47:44.458Z,13.40
2017-08-23T00:50:14.963Z,13.40
2017-08-23T00:52:45.508Z,13.40
2017-08-23T00:55:16.263Z,13.30
2017-08-23T00:57:46.841Z,13.30
2017-08-23T01:00:18.010Z,13.30
2017-08-23T01:02:48.455Z,13.30
2017-08-23T01:05:19.618Z,13.30
2017-08-23T01:07:49.927Z,13.30
2017-08-23T01:10:20.990Z,13.20
2017-08-23T01:12:51.432Z,13.20
2017-08-23T01:15:22.001Z,13.20
2017-08-23T01:17:52.477Z,13.20
2017-08-23T01:20:23.034Z,13.10
2017-08-23T01:22:54.214Z,13.10
2017-08-23T01:25:25.082Z,13.00
2017-08-23T01:27:55.929Z,13.10
2017-08-23T01:30:26.545Z,13.20
2017-08-23T01:32:56.971Z,13.10
2017-08-23T01:35:30.856Z,13.00
2017-08-23T01:38:01.498Z,13.00
2017-08-23T01:40:32.445Z,13.00
2017-08-23T01:43:04.607Z,13.00
2017-08-23T01:45:35.426Z,13.00
2017-08-23T01:48:05.986Z,13.10
2017-08-23T01:50:36.835Z,13.00
2017-08-23T01:53:07.187Z,13.00
2017-08-23T01:55:37.946Z,12.90
2017-08-23T01:58:08.882Z,12.90
2017-08-23T02:00:39.655Z,12.80
2017-08-23T02:03:10.391Z,12.80
2017-08-23T02:05:41.515Z,12.80
2017-08-23T02:08:12.734Z,12.80
2017-08-23T02:10:43.822Z,12.70
2017-08-23T02:13:15.356Z,12.70
2017-08-23T02:15:46.128Z,12.70
2017-08-23T02:18:17.448Z,12.60
2017-08-23T02:20:47.892Z,12.60
2017-08-23T02:23:20.163Z,12.60
2017-08-23T02:25:50.815Z,12.60
2017-08-23T02:28:21.445Z,12.60
2017-08-23T02:30:52.791Z,12.60
2017-08-23T02:33:23.290Z,12.60
2017-08-23T02:35:54.231Z,12.60
2017-08-23T02:38:25.177Z,12.60
2017-08-23T02:40:56.167Z,12.60
2017-08-23T02:43:27.467Z,12.50
2017-08-23T02:45:58.297Z,12.50
2017-08-23T02:48:28.935Z,12.60
2017-08-23T02:50:59.801Z,12.60
2017-08-23T02:53:30.818Z,12.50
2017-08-23T02:56:01.686Z,12.50
2017-08-23T02:58:33.093Z,12.50
2017-08-23T03:01:03.879Z,12.50
2017-08-23T03:03:35.330Z,12.40
2017-08-23T03:06:05.907Z,12.40
2017-08-23T03:08:36.899Z,12.40
2017-08-23T03:11:07.433Z,12.40
2017-08-23T03:13:37.956Z,12.40
2017-08-23T03:16:10.082Z,12.30
2017-08-23T03:18:40.767Z,12.30
2017-08-23T03:21:11.534Z,12.40
2017-08-23T03:23:42.200Z,12.40
2017-08-23T03:26:13.614Z,12.30
2017-08-23T03:28:45.320Z,12.30
2017-08-23T03:31:16.528Z,12.30
2017-08-23T03:33:47.469Z,12.30
2017-08-23T03:36:18.953Z,12.30
2017-08-23T03:38:49.733Z,12.30
2017-08-23T03:41:21.160Z,12.20
2017-08-23T03:43:51.717Z,12.20
2017-08-23T03:46:23.167Z,12.20
2017-08-23T03:48:53.776Z,12.20
2017-08-23T03:51:24.644Z,12.20
2017-08-23T03:53:55.938Z,12.20
2017-08-23T03:56:26.629Z,12.20
2017-08-23T03:58:57.449Z,12.10
2017-08-23T04:01:28.338Z,12.10
2017-08-23T04:03:59.013Z,12.10
2017-08-23T04:06:31.115Z,12.00
2017-08-23T04:09:03.097Z,12.00
2017-08-23T04:11:34.133Z,12.10
2017-08-23T04:14:05.381Z,11.90
2017-08-23T04:16:36.158Z,11.90
2017-08-23T04:19:06.973Z,11.90
2017-08-23T04:21:38.801Z,11.90
2017-08-23T04:24:09.274Z,11.90
2017-08-23T04:26:40.637Z,11.90
2017-08-23T04:29:20.901Z,11.90
2017-08-23T04:31:57.265Z,11.90
2017-08-23T04:34:32.907Z,11.90
2017-08-23T04:37:04.495Z,11.90
2017-08-23T04:39:38.214Z,11.90
2017-08-23T04:42:13.327Z,11.90
2017-08-23T04:44:44.439Z,11.90
2017-08-23T04:47:14.917Z,11.90
2017-08-23T04:49:45.444Z,11.90
2017-08-23T04:52:15.743Z,11.80
2017-08-23T04:54:46.921Z,11.90
2017-08-23T04:57:17.856Z,11.90
2017-08-23T04:59:48.855Z,11.90
2017-08-23T05:02:20.297Z,11.80
2017-08-23T05:04:50.549Z,11.80
2017-08-23T05:07:20.906Z,11.90
2017-08-23T05:09:51.975Z,11.90
2017-08-23T05:12:23.594Z,11.80
2017-08-23T05:14:54.067Z,11.90
2017-08-23T05:17:24.450Z,11.90
2017-08-23T05:19:54.680Z,11.90
2017-08-23T05:22:26.230Z,11.90
2017-08-23T05:24:57.128Z,12.00
2017-08-23T05:27:27.455Z,11.90
2017-08-23T05:29:58.841Z,12.00
2017-08-23T05:32:30.042Z,12.00
2017-08-23T05:35:00.519Z,12.00
2017-08-23T05:37:30.933Z,12.10
2017-08-23T05:40:01.679Z,12.10
2017-08-23T05:42:32.372Z,12.10
2017-08-23T05:45:02.798Z,12.20
2017-08-23T05:47:34.672Z,12.20
2017-08-23T05:50:05.118Z,12.20
2017-08-23T05:52:35.433Z,12.20
2017-08-23T05:55:06.086Z,12.20
2017-08-23T05:57:36.532Z,12.30
2017-08-23T06:00:07.038Z,12.30
2017-08-23T06:02:37.530Z,12.20
2017-08-23T06:05:07.849Z,12.30
2017-08-23T06:07:39.233Z,12.40
2017-08-23T06:10:11.307Z,12.40
2017-08-23T06:12:41.711Z,12.50
2017-08-23T06:15:12.896Z,12.60
2017-08-23T06:17:43.307Z,12.60
2017-08-23T06:20:13.883Z,12.80
2017-08-23T06:22:44.403Z,13.00
2017-08-23T06:25:15.872Z,13.30
2017-08-23T06:27:46.198Z,13.60
2017-08-23T06:30:16.566Z,14.00
2017-08-23T06:32:47.241Z,14.00
2017-08-23T06:35:17.470Z,14.30
2017-08-23T06:37:47.676Z,14.40
2017-08-23T06:40:18.766Z,14.90
2017-08-23T06:42:49.473Z,14.90
2017-08-23T06:45:19.874Z,15.20
2017-08-23T06:47:50.250Z,15.30
2017-08-23T06:50:20.553Z,15.30
2017-08-23T06:52:51.299Z,15.50
2017-08-23T06:55:21.630Z,15.60
2017-08-23T06:57:51.998Z,15.90
2017-08-23T07:00:22.389Z,16.10
2017-08-23T07:02:52.693Z,16.20
2017-08-23T07:05:23.040Z,16.30
2017-08-23T07:07:53.617Z,16.30
2017-08-23T07:10:23.997Z,16.30
2017-08-23T07:12:55.095Z,16.40
2017-08-23T07:15:25.533Z,16.30
2017-08-23T07:17:55.972Z,16.30
2017-08-23T07:20:26.491Z,16.20
2017-08-23T07:22:56.739Z,16.50
2017-08-23T07:25:27.017Z,16.80
2017-08-23T07:27:57.396Z,17.00
2017-08-23T07:30:29.214Z,17.40
2017-08-23T07:32:59.607Z,17.40
2017-08-23T07:35:30.273Z,17.40
2017-08-23T07:38:01.403Z,17.50
2017-08-23T07:40:31.831Z,17.60
2017-08-23T07:43:02.274Z,17.70
2017-08-23T07:45:33.039Z,18.00
2017-08-23T07:48:03.482Z,18.40
2017-08-23T07:50:34.737Z,19.00
2017-08-23T07:53:05.140Z,19.00
2017-08-23T07:55:35.989Z,19.50
2017-08-23T07:58:06.351Z,19.80
2017-08-23T08:00:36.760Z,20.20
2017-08-23T08:03:07.962Z,19.80
2017-08-23T08:05:38.350Z,20.10
2017-08-23T08:08:08.726Z,20.20
2017-08-23T08:10:39.642Z,20.00
2017-08-23T08:13:10.329Z,20.10
2017-08-23T08:15:40.940Z,20.00
2017-08-23T08:18:11.305Z,20.20
2017-08-23T08:20:41.666Z,20.10
2017-08-23T08:23:12.001Z,20.70
2017-08-23T08:25:42.721Z,21.40
2017-08-23T08:28:13.032Z,21.60
2017-08-23T08:30:43.384Z,21.00
2017-08-23T08:33:13.812Z,20.40
2017-08-23T08:35:44.106Z,20.60
2017-08-23T08:38:14.399Z,20.90
2017-08-23T08:40:45.105Z,21.60
2017-08-23T08:43:15.957Z,22.70
2017-08-23T08:45:46.977Z,23.60
2017-08-23T08:48:17.278Z,23.50
2017-08-23T08:50:49.696Z,22.80
2017-08-23T08:53:20.187Z,22.20
2017-08-23T08:55:50.544Z,22.60
2017-08-23T08:58:21.812Z,21.60
2017-08-23T09:00:52.026Z,21.60
2017-08-23T09:03:22.238Z,21.20
2017-08-23T09:05:52.606Z,21.50
2017-08-23T09:08:22.825Z,21.40
2017-08-23T09:10:53.617Z,21.70
2017-08-23T09:13:23.974Z,21.90
2017-08-23T09:15:54.279Z,21.60
2017-08-23T09:18:25.507Z,21.80
2017-08-23T09:20:56.098Z,21.80
2017-08-23T09:23:26.833Z,22.30
2017-08-23T09:25:57.526Z,22.70
2017-08-23T09:28:28.235Z,23.20
2017-08-23T09:30:59.118Z,23.40
2017-08-23T09:33:29.688Z,23.80
2017-08-23T09:36:00.185Z,23.40
2017-08-23T09:38:30.855Z,23.50
2017-08-23T09:41:01.210Z,23.40
2017-08-23T09:43:31.649Z,23.50
2017-08-23T09:46:03.274Z,24.00
2017-08-23T09:48:33.887Z,24.00
2017-08-23T09:51:04.117Z,24.70
2017-08-23T09:53:34.296Z,24.50
2017-08-23T09:56:05.155Z,23.80
2017-08-23T09:58:35.466Z,23.80
2017-08-23T10:01:05.850Z,23.70
2017-08-23T10:03:36.542Z,23.50
2017-08-23T10:06:06.946Z,24.10
2017-08-23T10:08:37.286Z,24.10
2017-08-23T10:11:07.617Z,24.20
2017-08-23T10:13:38.273Z,25.50
2017-08-23T10:16:08.553Z,25.70
2017-08-23T10:18:39.552Z,24.50
2017-08-23T10:21:10.694Z,24.10
2017-08-23T10:23:41.764Z,24.10
2017-08-23T10:26:12.266Z,24.40
2017-08-23T10:28:42.748Z,24.50
2017-08-23T10:31:13.082Z,24.00
2017-08-23T10:33:43.472Z,24.20
2017-08-23T10:36:13.838Z,24.90
2017-08-23T10:38:45.067Z,24.30
2017-08-23T10:41:17.845Z,24.30
2017-08-23T10:43:53.551Z,25.10
2017-08-23T10:46:29.508Z,25.60
2017-08-23T10:49:04.171Z,25.70
2017-08-23T10:51:43.815Z,25.50
2017-08-23T10:54:15.179Z,25.20
2017-08-23T10:56:45.593Z,26.20
2017-08-23T10:59:16.244Z,25.70
2017-08-23T11:01:46.874Z,25.80
2017-08-23T11:04:17.596Z,25.40
2017-08-23T11:06:47.850Z,24.70
2017-08-23T11:09:18.208Z,24.20
2017-08-23T11:11:48.625Z,25.30
2017-08-23T11:14:18.907Z,25.50
2017-08-23T11:16:49.287Z,25.50
2017-08-23T11:19:20.753Z,26.00
2017-08-23T11:21:51.106Z,26.00
2017-08-23T11:24:22.010Z,26.30
2017-08-23T11:26:52.819Z,26.60
2017-08-23T11:29:23.254Z,25.30
2017-08-23T11:31:53.466Z,24.90
2017-08-23T11:34:24.365Z,25.50
2017-08-23T11:36:55.153Z,26.40
2017-08-23T11:39:25.905Z,27.30
2017-08-23T11:41:56.216Z,28.00
2017-08-23T11:44:26.999Z,28.00
2017-08-23T11:46:57.681Z,27.60
2017-08-23T11:49:27.953Z,27.20
2017-08-23T11:51:58.161Z,27.70
2017-08-23T11:54:29.657Z,28.90
2017-08-23T11:56:59.898Z,28.90
2017-08-23T11:59:30.355Z,29.50
2017-08-23T12:02:00.654Z,28.80
2017-08-23T12:04:31.299Z,29.00
2017-08-23T12:07:01.757Z,27.90
2017-08-23T12:09:32.458Z,27.70
2017-08-23T12:12:02.853Z,28.10
2017-08-23T12:14:34.247Z,28.30
2017-08-23T12:17:04.862Z,28.90
2017-08-23T12:19:35.266Z,28.80
2017-08-23T12:22:05.523Z,29.10
2017-08-23T12:24:36.243Z,29.20
2017-08-23T12:27:06.627Z,28.80
2017-08-23T12:29:36.965Z,28.80
2017-08-23T12:32:07.177Z,29.40
2017-08-23T12:34:37.417Z,27.40
2017-08-23T12:37:07.649Z,26.60
2017-08-23T12:39:38.609Z,26.40
2017-08-23T12:42:09.005Z,26.70
2017-08-23T12:44:39.377Z,27.00
2017-08-23T12:47:09.731Z,27.70
2017-08-23T12:49:40.088Z,28.20
2017-08-23T12:52:10.510Z,27.80
2017-08-23T12:54:40.763Z,28.00
2017-08-23T12:57:11.785Z,28.20
2017-08-23T12:59:42.049Z,28.20
2017-08-23T13:02:13.515Z,27.20
2017-08-23T13:04:43.842Z,27.20
2017-08-23T13:07:14.175Z,27.80
2017-08-23T13:09:44.579Z,27.80
2017-08-23T13:12:15.390Z,27.30
2017-08-23T13:14:48.115Z,27.10
2017-08-23T13:17:19.181Z,26.70
2017-08-23T13:19:49.553Z,26.60
2017-08-23T13:22:19.814Z,27.20
2017-08-23T13:24:50.134Z,28.00
2017-08-23T13:27:20.862Z,27.90
2017-08-23T13:29:51.982Z,26.80
2017-08-23T13:32:22.368Z,26.80
2017-08-23T13:34:52.790Z,26.50
2017-08-23T13:37:23.160Z,26.70
2017-08-23T13:39:53.958Z,26.70
2017-08-23T13:42:24.488Z,26.50
2017-08-23T13:44:55.102Z,26.70
2017-08-23T13:47:25.793Z,26.90
2017-08-23T13:49:56.011Z,26.20
2017-08-23T13:52:26.286Z,26.40
2017-08-23T13:54:56.954Z,27.20
2017-08-23T13:57:28.087Z,27.30
2017-08-23T13:59:58.573Z,27.10
2017-08-23T14:02:29.731Z,26.60
2017-08-23T14:05:00.614Z,26.50
2017-08-23T14:07:31.205Z,25.80
2017-08-23T14:10:01.810Z,25.90
2017-08-23T14:12:33.416Z,26.30
2017-08-23T14:15:03.852Z,26.30
2017-08-23T14:17:34.677Z,26.40
2017-08-23T14:20:05.057Z,26.60
2017-08-23T14:22:35.589Z,26.10
2017-08-23T14:25:06.680Z,25.70
2017-08-23T14:27:38.274Z,25.80
2017-08-23T14:30:08.609Z,25.80
2017-08-23T14:32:39.992Z,26.10
2017-08-23T14:37:43.526Z,25.80
2017-08-23T14:40:14.421Z,25.50
2017-08-23T14:42:45.138Z,25.70
2017-08-23T14:45:15.524Z,25.60
2017-08-23T14:47:45.951Z,26.20
2017-08-23T14:50:16.266Z,25.70
2017-08-23T14:52:47.172Z,26.10
2017-08-23T14:55:17.424Z,26.20
2017-08-23T14:57:48.287Z,26.00
2017-08-23T15:00:18.793Z,25.80
2017-08-23T15:02:49.285Z,25.50
2017-08-23T15:05:19.591Z,25.50
2017-08-23T15:07:49.908Z,25.00
2017-08-23T15:10:20.293Z,25.50
2017-08-23T15:12:51.130Z,25.90
2017-08-23T15:15:21.502Z,26.10
2017-08-23T15:17:51.776Z,26.50
2017-08-23T15:20:22.821Z,26.60
2017-08-23T15:22:56.549Z,26.70
2017-08-23T15:25:27.602Z,26.60
2017-08-23T15:27:58.433Z,26.00
2017-08-23T15:30:29.402Z,25.90
2017-08-23T15:33:01.553Z,25.50
2017-08-23T15:35:32.321Z,25.50
2017-08-23T15:38:03.549Z,25.50
2017-08-23T15:40:33.990Z,25.50
2017-08-23T15:43:04.520Z,25.30
2017-08-23T15:45:35.738Z,25.30
2017-08-23T15:48:06.419Z,25.30
2017-08-23T15:50:36.834Z,25.40
2017-08-23T15:53:07.540Z,25.80
2017-08-23T15:55:37.755Z,25.90
2017-08-23T15:58:08.836Z,25.90
2017-08-23T16:00:39.124Z,25.70
2017-08-23T16:03:10.107Z,25.40
2017-08-23T16:05:40.362Z,25.40
2017-08-23T16:08:11.366Z,25.20
2017-08-23T16:10:41.683Z,25.20
2017-08-23T16:13:12.712Z,24.90
2017-08-23T16:15:43.057Z,24.90
2017-08-23T16:18:14.001Z,25.30
2017-08-23T16:20:44.398Z,25.30
2017-08-23T16:23:15.005Z,25.20
2017-08-23T16:25:45.336Z,25.50
2017-08-23T16:28:15.735Z,25.10
2017-08-23T16:30:46.951Z,25.30
2017-08-23T16:33:18.022Z,25.00
2017-08-23T16:35:48.270Z,24.90
2017-08-23T16:38:19.198Z,24.90
2017-08-23T16:40:49.751Z,25.10
2017-08-23T16:43:20.981Z,25.00
2017-08-23T16:45:51.175Z,25.20
2017-08-23T16:48:21.679Z,25.00
2017-08-23T16:50:51.895Z,25.10
2017-08-23T16:53:24.331Z,25.30
2017-08-23T16:55:54.591Z,25.30
2017-08-23T16:58:25.662Z,25.10
2017-08-23T17:00:56.037Z,25.10
2017-08-23T17:03:26.438Z,25.10
2017-08-23T17:05:56.907Z,25.00
2017-08-23T17:08:27.687Z,25.30
2017-08-23T17:10:59.864Z,25.40
2017-08-23T17:13:32.594Z,25.50
2017-08-23T17:18:40.554Z,25.50
2017-08-23T17:21:11.172Z,25.50
2017-08-23T17:23:42.670Z,25.30
2017-08-23T17:26:12.955Z,25.20
2017-08-23T17:28:43.437Z,25.20
2017-08-23T17:31:13.874Z,25.30
2017-08-23T17:33:44.326Z,25.30
2017-08-23T17:36:14.718Z,25.00
2017-08-23T17:38:45.158Z,24.80
2017-08-23T17:41:16.665Z,24.80
2017-08-23T17:43:47.418Z,24.70
2017-08-23T17:46:17.921Z,24.60
2017-08-23T17:48:48.759Z,24.50
2017-08-23T17:51:19.220Z,24.60
2017-08-23T17:53:49.928Z,24.60
2017-08-23T17:56:20.787Z,24.60
2017-08-23T17:58:51.060Z,24.60
2017-08-23T18:01:21.508Z,24.60
2017-08-23T18:03:52.146Z,24.60
2017-08-23T18:06:22.646Z,24.60
2017-08-23T18:08:53.078Z,24.50
2017-08-23T18:11:23.382Z,24.30
2017-08-23T18:13:53.909Z,24.30
2017-08-23T18:16:25.276Z,24.20
2017-08-23T18:18:56.288Z,24.20
2017-08-23T18:21:26.927Z,24.20
2017-08-23T18:23:58.020Z,24.10
2017-08-23T18:26:29.159Z,24.10
2017-08-23T18:29:00.867Z,24.00
2017-08-23T18:31:32.750Z,23.90
2017-08-23T18:34:04.169Z,23.80
2017-08-23T18:36:35.594Z,23.80
2017-08-23T18:39:06.284Z,23.70
2017-08-23T18:41:36.840Z,23.50
2017-08-23T18:44:07.623Z,23.50
2017-08-23T18:46:37.826Z,23.40
2017-08-23T18:49:08.134Z,23.40
2017-08-23T18:51:38.801Z,23.30
2017-08-23T18:54:09.064Z,23.20
2017-08-23T18:56:39.397Z,23.20
2017-08-23T18:59:09.970Z,23.20
2017-08-23T19:01:40.344Z,23.10
2017-08-23T19:04:10.944Z,23.00
2017-08-23T19:06:47.537Z,22.90
2017-08-23T19:09:24.232Z,22.80
2017-08-23T19:11:55.819Z,22.70
2017-08-23T19:14:26.598Z,22.70
2017-08-23T19:16:57.563Z,22.60
2017-08-23T19:19:27.879Z,22.50
2017-08-23T19:21:59.182Z,22.40
2017-08-23T19:24:29.545Z,22.40
2017-08-23T19:27:00.866Z,22.30
2017-08-23T19:29:31.162Z,22.30
2017-08-23T19:32:01.895Z,22.30
2017-08-23T19:34:32.617Z,22.20
2017-08-23T19:37:02.877Z,22.20
2017-08-23T19:39:33.674Z,22.10
2017-08-23T19:42:04.483Z,22.00
2017-08-23T19:44:35.783Z,21.90
2017-08-23T19:47:06.157Z,21.90
2017-08-23T19:49:37.607Z,21.80
2017-08-23T19:52:08.363Z,21.80
2017-08-23T19:57:19.251Z,21.60
2017-08-23T19:59:50.050Z,21.50
2017-08-23T20:02:20.666Z,21.50
2017-08-23T20:04:51.704Z,21.40
2017-08-23T20:07:22.071Z,21.40
2017-08-23T20:09:53.136Z,21.30
2017-08-23T20:12:23.350Z,21.30
2017-08-23T20:14:54.962Z,21.20
2017-08-23T20:17:25.423Z,21.20
2017-08-23T20:19:56.168Z,21.20
2017-08-23T20:22:26.736Z,21.10
2017-08-23T20:24:57.348Z,21.20
2017-08-23T20:27:27.690Z,21.10
2017-08-23T20:29:58.090Z,21.00
2017-08-23T20:32:29.217Z,20.90
2017-08-23T20:34:59.803Z,20.80
2017-08-23T20:37:30.025Z,20.80
2017-08-23T20:40:00.282Z,20.70
2017-08-23T20:42:30.930Z,20.70
2017-08-23T20:45:02.443Z,20.60
2017-08-23T20:47:32.970Z,20.60
2017-08-23T20:50:03.286Z,20.70
2017-08-23T20:52:33.664Z,20.50
2017-08-23T20:55:04.262Z,20.60
2017-08-23T20:57:34.621Z,20.60
2017-08-23T21:00:05.258Z,20.60
2017-08-23T21:02:35.613Z,20.60
2017-08-23T21:05:05.863Z,20.60
2017-08-23T21:07:36.074Z,20.60
2017-08-23T21:10:06.560Z,20.50
2017-08-23T21:12:36.832Z,20.40
2017-08-23T21:15:07.868Z,20.40
2017-08-23T21:17:38.558Z,20.40
2017-08-23T21:20:09.914Z,20.30
2017-08-23T21:22:40.097Z,20.30
2017-08-23T21:25:10.345Z,20.20
2017-08-23T21:27:41.692Z,20.10
2017-08-23T21:30:12.725Z,20.10
2017-08-23T21:32:43.297Z,20.00
2017-08-23T21:35:13.734Z,20.00
2017-08-23T21:37:44.408Z,20.10
2017-08-23T21:40:17.332Z,20.00
2017-08-23T21:42:47.636Z,20.00
2017-08-23T21:45:18.058Z,19.90
2017-08-23T21:54:57.236Z,20.00
2017-08-23T21:57:27.490Z,20.00
2017-08-23T21:59:57.842Z,19.90
2017-08-23T22:02:28.021Z,19.90
2017-08-23T22:04:58.258Z,19.90
2017-08-23T22:07:29.684Z,19.90
2017-08-23T22:10:08.536Z,19.90
2017-08-23T22:12:38.706Z,19.90
2017-08-23T22:15:08.896Z,19.90
2017-08-23T22:17:39.164Z,19.80
2017-08-23T22:20:18.240Z,19.80
2017-08-23T22:22:48.582Z,19.80
2017-08-23T22:25:19.032Z,19.80
2017-08-23T22:27:49.230Z,19.80
2017-08-23T22:30:19.637Z,19.80
2017-08-23T22:32:50.789Z,19.80
2017-08-23T22:35:20.964Z,19.80
2017-08-23T22:37:51.495Z,19.70
2017-08-23T22:40:21.580Z,19.70
2017-08-23T22:42:51.696Z,19.70
2017-08-23T22:45:21.796Z,19.70
2017-08-23T22:47:52.340Z,19.70
2017-08-23T22:50:22.988Z,19.60
2017-08-23T22:52:53.336Z,19.60
2017-08-23T22:55:23.465Z,19.60
2017-08-23T22:57:54.681Z,19.60
2017-08-23T23:00:26.349Z,19.50
2017-08-23T23:02:56.778Z,19.50
2017-08-23T23:05:26.905Z,19.50
2017-08-23T23:07:57.238Z,19.50
2017-08-23T23:10:28.822Z,19.40
2017-08-23T23:12:59.285Z,19.30
2017-08-23T23:15:29.533Z,19.30
2017-08-23T23:17:59.981Z,19.30
2017-08-23T23:20:30.157Z,19.20
2017-08-23T23:23:00.688Z,19.20
2017-08-23T23:25:30.897Z,19.20
2017-08-23T23:28:01.377Z,19.20
2017-08-23T23:30:31.552Z,19.20
2017-08-23T23:33:01.688Z,19.20
2017-08-23T23:35:31.942Z,19.20
2017-08-23T23:38:03.217Z,19.10
2017-08-23T23:40:33.468Z,19.10
2017-08-23T23:43:03.657Z,19.10
2017-08-23T23:45:33.852Z,19.10
2017-08-23T23:48:05.509Z,19.10
2017-08-23T23:50:35.604Z,19.10
2017-08-23T23:53:05.783Z,19.20
